createdAt,value
2018-12-29T00:01:37.537Z,100427.00
2018-12-29T00:04:08.010Z,100428.34
2018-12-29T00:06:38.625Z,100425.66
2018-12-29T00:09:09.492Z,100428.52
2018-12-29T00:11:40.021Z,100431.62
2018-12-29T00:14:10.589Z,100441.95
2018-12-29T00:16:41.076Z,100433.80
2018-12-29T00:19:11.645Z,100440.84
2018-12-29T00:21:42.258Z,100440.63
2018-12-29T00:24:12.849Z,100438.94
2018-12-29T00:26:43.367Z,100440.08
2018-12-29T00:29:14.054Z,100445.52
2018-12-29T00:31:44.748Z,100446.34
2018-12-29T00:34:15.338Z,100449.52
2018-12-29T00:36:45.829Z,100454.02
2018-12-29T00:39:16.332Z,100445.33
2018-12-29T00:41:47.609Z,100448.25
2018-12-29T00:44:18.071Z,100442.44
2018-12-29T00:46:48.673Z,100447.41
2018-12-29T00:49:19.247Z,100446.67
2018-12-29T00:51:49.718Z,100447.41
2018-12-29T00:54:20.216Z,100447.04
2018-12-29T00:56:50.699Z,100449.53
2018-12-29T00:59:21.144Z,100451.03
2018-12-29T01:01:51.669Z,100454.50
2018-12-29T01:04:22.162Z,100450.59
2018-12-29T01:06:52.849Z,100449.53
2018-12-29T01:09:23.188Z,100457.94
2018-12-29T01:11:53.806Z,100456.78
2018-12-29T01:14:24.224Z,100458.49
2018-12-29T01:16:54.833Z,100461.56
2018-12-29T01:19:25.470Z,100464.13
2018-12-29T01:21:56.073Z,100462.48
2018-12-29T01:24:26.637Z,100461.05
2018-12-29T01:26:57.198Z,100463.25
2018-12-29T01:29:27.808Z,100467.16
2018-12-29T01:31:58.247Z,100465.33
2018-12-29T01:34:28.793Z,100475.86
2018-12-29T01:36:59.398Z,100470.80
2018-12-29T01:39:29.822Z,100470.99
2018-12-29T01:42:00.359Z,100470.74
2018-12-29T01:44:30.968Z,100479.41
2018-12-29T01:47:01.458Z,100475.92
2018-12-29T01:49:31.919Z,100470.99
2018-12-29T01:52:02.547Z,100480.25
2018-12-29T01:54:33.220Z,100479.95
2018-12-29T01:57:03.713Z,100479.46
2018-12-29T01:59:34.239Z,100478.88
2018-12-29T02:02:04.954Z,100475.05
2018-12-29T02:04:35.500Z,100480.98
2018-12-29T02:07:06.098Z,100477.26
2018-12-29T02:09:36.619Z,100476.28
2018-12-29T02:12:26.248Z,100475.91
2018-12-29T02:14:57.096Z,100472.38
2018-12-29T02:17:27.808Z,100478.56
2018-12-29T02:19:58.277Z,100471.03
2018-12-29T02:22:28.819Z,100473.44
2018-12-29T02:24:59.249Z,100480.35
2018-12-29T02:27:29.789Z,100479.08
2018-12-29T02:30:00.367Z,100479.14
2018-12-29T02:32:30.771Z,100475.59
2018-12-29T02:35:01.337Z,100482.98
2018-12-29T02:37:31.797Z,100480.63
2018-12-29T02:40:02.154Z,100478.20
2018-12-29T02:42:32.538Z,100469.45
2018-12-29T02:45:02.969Z,100464.89
2018-12-29T02:47:33.389Z,100464.95
2018-12-29T02:50:03.797Z,100460.20
2018-12-29T02:52:34.318Z,100458.77
2018-12-29T02:55:05.093Z,100463.19
2018-12-29T02:57:35.587Z,100457.47
2018-12-29T03:00:06.443Z,100451.67
2018-12-29T03:02:37.257Z,100446.63
2018-12-29T03:05:07.888Z,100443.91
2018-12-29T03:07:38.293Z,100445.89
2018-12-29T03:10:08.810Z,100449.45
2018-12-29T03:12:39.377Z,100443.12
2018-12-29T03:15:10.003Z,100444.11
2018-12-29T03:17:40.455Z,100444.41
2018-12-29T03:20:11.018Z,100442.37
2018-12-29T03:22:41.500Z,100437.58
2018-12-29T03:25:12.054Z,100443.73
2018-12-29T03:27:42.830Z,100432.39
2018-12-29T03:30:13.363Z,100438.88
2018-12-29T03:32:43.890Z,100428.78
2018-12-29T03:35:14.692Z,100433.20
2018-12-29T03:37:45.204Z,100435.40
2018-12-29T03:40:15.801Z,100427.72
2018-12-29T03:42:46.508Z,100435.70
2018-12-29T03:45:17.159Z,100424.47
2018-12-29T03:47:48.060Z,100428.78
2018-12-29T03:50:18.681Z,100431.86
2018-12-29T03:52:49.121Z,100421.53
2018-12-29T03:55:19.718Z,100423.58
2018-12-29T03:57:50.471Z,100425.08
2018-12-29T04:00:21.012Z,100428.62
2018-12-29T04:02:51.700Z,100426.13
2018-12-29T04:05:22.204Z,100428.29
2018-12-29T04:07:52.761Z,100419.87
2018-12-29T04:10:23.357Z,100425.52
2018-12-29T04:12:59.359Z,100429.28
2018-12-29T04:15:30.066Z,100431.48
2018-12-29T04:18:00.522Z,100430.71
2018-12-29T04:20:31.038Z,100430.64
2018-12-29T04:23:01.680Z,100432.91
2018-12-29T04:25:32.173Z,100431.19
2018-12-29T04:28:03.000Z,100439.54
2018-12-29T04:30:33.569Z,100433.69
2018-12-29T04:33:04.098Z,100437.27
2018-12-29T04:35:34.497Z,100438.67
2018-12-29T04:38:05.046Z,100443.31
2018-12-29T04:40:35.500Z,100441.73
2018-12-29T04:43:06.041Z,100449.28
2018-12-29T04:45:36.608Z,100450.27
2018-12-29T04:48:07.437Z,100445.08
2018-12-29T04:50:38.026Z,100448.84
2018-12-29T04:53:08.472Z,100439.88
2018-12-29T04:55:39.010Z,100435.78
2018-12-29T04:58:09.488Z,100442.95
2018-12-29T05:00:40.050Z,100443.47
2018-12-29T05:03:10.571Z,100443.10
2018-12-29T05:05:41.116Z,100443.58
2018-12-29T05:08:11.890Z,100449.28
2018-12-29T05:10:42.282Z,100437.17
2018-12-29T05:13:12.886Z,100447.42
2018-12-29T05:15:43.266Z,100447.64
2018-12-29T05:18:13.841Z,100447.78
2018-12-29T05:20:44.412Z,100449.73
2018-12-29T05:23:15.059Z,100443.25
2018-12-29T05:25:45.477Z,100450.05
2018-12-29T05:28:15.972Z,100446.66
2018-12-29T05:30:46.493Z,100449.28
2018-12-29T05:33:16.853Z,100448.92
2018-12-29T05:35:47.371Z,100447.42
2018-12-29T05:38:17.974Z,100449.44
2018-12-29T05:40:48.577Z,100457.27
2018-12-29T05:43:19.056Z,100446.66
2018-12-29T05:45:49.407Z,100458.03
2018-12-29T05:48:19.840Z,100448.23
2018-12-29T05:50:50.258Z,100453.34
2018-12-29T05:53:20.786Z,100449.28
2018-12-29T05:55:51.262Z,100459.83
2018-12-29T05:58:21.659Z,100456.83
2018-12-29T06:00:52.187Z,100460.37
2018-12-29T06:03:22.766Z,100462.24
2018-12-29T06:05:53.124Z,100462.24
2018-12-29T06:08:23.473Z,100459.83
2018-12-29T06:10:54.632Z,100457.96
2018-12-29T06:13:25.076Z,100464.73
2018-12-29T06:15:55.622Z,100459.39
2018-12-29T06:18:26.180Z,100463.52
2018-12-29T06:20:56.750Z,100469.56
2018-12-29T06:23:27.330Z,100469.27
2018-12-29T06:25:57.760Z,100465.94
2018-12-29T06:28:28.279Z,100467.84
2018-12-29T06:30:58.717Z,100467.59
2018-12-29T06:33:29.147Z,100470.00
2018-12-29T06:35:59.649Z,100474.10
2018-12-29T06:38:30.006Z,100474.17
2018-12-29T06:41:00.677Z,100474.83
2018-12-29T06:43:31.086Z,100471.28
2018-12-29T06:46:01.618Z,100478.09
2018-12-29T06:48:32.039Z,100470.00
2018-12-29T06:51:02.455Z,100476.41
2018-12-29T06:53:32.882Z,100470.77
2018-12-29T06:56:03.304Z,100474.25
2018-12-29T06:58:33.732Z,100477.55
2018-12-29T07:01:04.265Z,100470.92
2018-12-29T07:03:34.694Z,100469.34
2018-12-29T07:06:05.109Z,100470.00
2018-12-29T07:08:35.588Z,100473.11
2018-12-29T07:11:06.249Z,100467.22
2018-12-29T07:13:36.879Z,100472.42
2018-12-29T07:16:07.476Z,100470.41
2018-12-29T07:18:38.081Z,100466.70
2018-12-29T07:21:08.587Z,100469.05
2018-12-29T07:23:39.020Z,100467.22
2018-12-29T07:26:09.453Z,100469.05
2018-12-29T07:28:40.287Z,100471.53
2018-12-29T07:31:12.655Z,100473.70
2018-12-29T07:33:43.143Z,100468.57
2018-12-29T07:36:13.939Z,100457.04
2018-12-29T07:38:44.394Z,100459.78
2018-12-29T07:41:14.940Z,100462.72
2018-12-29T07:43:45.529Z,100464.06
2018-12-29T07:46:16.072Z,100464.58
2018-12-29T07:48:46.616Z,100468.20
2018-12-29T07:51:17.096Z,100470.77
2018-12-29T07:53:47.668Z,100476.18
2018-12-29T07:56:18.024Z,100475.67
2018-12-29T07:58:48.527Z,100475.95
2018-12-29T08:01:19.088Z,100480.13
2018-12-29T08:03:49.707Z,100478.44
2018-12-29T08:06:20.132Z,100482.84
2018-12-29T08:08:50.595Z,100485.55
2018-12-29T08:11:21.031Z,100477.63
2018-12-29T08:13:51.667Z,100479.21
2018-12-29T08:16:22.137Z,100480.42
2018-12-29T08:18:52.939Z,100480.85
2018-12-29T08:21:23.862Z,100481.48
2018-12-29T08:23:54.364Z,100477.37
2018-12-29T08:26:25.037Z,100484.55
2018-12-29T08:28:55.569Z,100479.42
2018-12-29T08:31:25.978Z,100483.78
2018-12-29T08:33:56.449Z,100477.78
2018-12-29T08:36:26.986Z,100487.34
2018-12-29T08:38:57.356Z,100486.75
2018-12-29T08:41:27.929Z,100487.89
2018-12-29T08:43:58.506Z,100486.12
2018-12-29T08:46:29.186Z,100491.47
2018-12-29T08:48:59.795Z,100487.18
2018-12-29T08:51:30.413Z,100485.06
2018-12-29T08:54:00.920Z,100495.09
2018-12-29T08:56:31.446Z,100496.16
2018-12-29T08:59:01.879Z,100495.42
2018-12-29T09:01:32.348Z,100495.16
2018-12-29T09:04:02.712Z,100500.07
2018-12-29T09:06:33.061Z,100497.66
2018-12-29T09:09:04.506Z,100499.56
2018-12-29T09:11:34.914Z,100491.87
2018-12-29T09:14:06.243Z,100497.36
2018-12-29T09:16:37.242Z,100493.38
2018-12-29T09:19:07.780Z,100490.58
2018-12-29T09:21:38.456Z,100492.38
2018-12-29T09:24:09.179Z,100496.37
2018-12-29T09:26:41.356Z,100496.91
2018-12-29T09:29:12.147Z,100493.21
2018-12-29T09:31:42.692Z,100489.30
2018-12-29T09:34:13.123Z,100489.37
2018-12-29T09:36:43.803Z,100486.95
2018-12-29T09:39:15.284Z,100477.37
2018-12-29T09:41:45.927Z,100481.00
2018-12-29T09:44:16.537Z,100479.17
2018-12-29T09:46:47.185Z,100480.38
2018-12-29T09:49:17.727Z,100474.87
2018-12-29T09:51:48.396Z,100481.29
2018-12-29T09:54:19.544Z,100476.73
2018-12-29T09:56:50.216Z,100470.17
2018-12-29T09:59:20.797Z,100470.17
2018-12-29T10:01:51.528Z,100474.71
2018-12-29T10:04:22.055Z,100471.75
2018-12-29T10:06:52.645Z,100472.66
2018-12-29T10:09:23.096Z,100464.82
2018-12-29T10:11:53.613Z,100466.25
2018-12-29T10:14:24.159Z,100460.37
2018-12-29T10:16:54.915Z,100456.81
2018-12-29T10:19:25.499Z,100448.58
2018-12-29T10:21:56.196Z,100452.42
2018-12-29T10:24:26.901Z,100457.49
2018-12-29T10:26:57.462Z,100454.22
2018-12-29T10:29:29.397Z,100444.89
2018-12-29T10:32:00.001Z,100444.02
2018-12-29T10:34:30.777Z,100446.27
2018-12-29T10:37:02.118Z,100440.00
2018-12-29T10:39:32.709Z,100447.20
2018-12-29T10:42:03.187Z,100440.66
2018-12-29T10:44:33.871Z,100440.66
2018-12-29T10:47:04.706Z,100440.42
2018-12-29T10:49:35.162Z,100435.52
2018-12-29T10:52:05.786Z,100433.73
2018-12-29T10:54:36.269Z,100430.39
2018-12-29T10:57:06.728Z,100426.55
2018-12-29T10:59:37.326Z,100424.13
2018-12-29T11:02:07.995Z,100425.03
2018-12-29T11:04:38.453Z,100433.50
2018-12-29T11:07:08.957Z,100427.23
2018-12-29T11:09:39.425Z,100423.30
2018-12-29T11:12:09.967Z,100417.11
2018-12-29T11:14:40.537Z,100424.13
2018-12-29T11:17:11.026Z,100419.91
2018-12-29T11:19:41.647Z,100418.39
2018-12-29T11:22:12.130Z,100420.50
2018-12-29T11:24:42.828Z,100413.83
2018-12-29T11:27:13.359Z,100414.23
2018-12-29T11:29:43.876Z,100413.09
2018-12-29T11:32:14.396Z,100407.67
2018-12-29T11:34:45.096Z,100407.63
2018-12-29T11:37:15.611Z,100406.63
2018-12-29T11:39:46.066Z,100406.48
2018-12-29T11:42:16.575Z,100403.59
2018-12-29T11:44:47.167Z,100406.57
2018-12-29T11:47:17.746Z,100405.80
2018-12-29T11:49:48.420Z,100393.42
2018-12-29T11:52:18.969Z,100403.17
2018-12-29T11:54:49.580Z,100395.77
2018-12-29T11:57:20.099Z,100395.48
2018-12-29T11:59:50.566Z,100398.88
2018-12-29T12:02:24.571Z,100393.74
2018-12-29T12:04:53.355Z,100399.52
2018-12-29T12:07:24.045Z,100402.23
2018-12-29T12:09:54.814Z,100388.94
2018-12-29T12:12:25.424Z,100388.06
2018-12-29T12:14:56.422Z,100389.48
2018-12-29T12:17:27.096Z,100387.84
2018-12-29T12:19:57.727Z,100388.66
2018-12-29T12:22:28.366Z,100387.89
2018-12-29T12:24:59.135Z,100379.31
2018-12-29T12:27:29.685Z,100383.67
2018-12-29T12:30:00.666Z,100383.16
2018-12-29T12:32:31.347Z,100378.27
2018-12-29T12:35:02.320Z,100382.48
2018-12-29T12:37:32.820Z,100377.58
2018-12-29T12:40:03.446Z,100375.02
2018-12-29T12:42:34.168Z,100377.86
2018-12-29T12:45:05.327Z,100373.73
2018-12-29T12:47:35.981Z,100368.59
2018-12-29T12:50:06.781Z,100366.95
2018-12-29T12:52:37.577Z,100366.58
2018-12-29T12:55:08.406Z,100359.39
2018-12-29T12:57:39.075Z,100363.92
2018-12-29T13:00:10.858Z,100358.30
2018-12-29T13:02:41.285Z,100351.97
2018-12-29T13:05:11.926Z,100349.17
2018-12-29T13:07:42.486Z,100354.31
2018-12-29T13:10:13.097Z,100352.66
2018-12-29T13:12:43.616Z,100353.80
2018-12-29T13:15:14.181Z,100349.95
2018-12-29T13:17:44.746Z,100347.38
2018-12-29T13:20:15.445Z,100347.89
2018-12-29T13:22:46.309Z,100352.52
2018-12-29T13:25:17.034Z,100358.39
2018-12-29T13:27:47.730Z,100353.48
2018-12-29T13:30:18.319Z,100352.16
2018-12-29T13:32:48.962Z,100348.63
2018-12-29T13:35:19.956Z,100348.63
2018-12-29T13:37:50.586Z,100344.37
2018-12-29T13:40:21.184Z,100349.91
2018-12-29T13:42:51.859Z,100343.41
2018-12-29T13:45:22.334Z,100346.14
2018-12-29T13:47:53.090Z,100348.03
2018-12-29T13:50:23.739Z,100348.53
2018-12-29T13:52:54.348Z,100349.77
2018-12-29T13:55:24.975Z,100350.45
2018-12-29T13:57:55.575Z,100351.97
2018-12-29T14:00:26.204Z,100353.16
2018-12-29T14:02:56.794Z,100358.75
2018-12-29T14:05:27.796Z,100355.21
2018-12-29T14:07:58.325Z,100355.58
2018-12-29T14:10:28.956Z,100349.77
2018-12-29T14:12:59.510Z,100354.77
2018-12-29T14:15:30.145Z,100347.98
2018-12-29T14:18:00.818Z,100343.22
2018-12-29T14:20:31.354Z,100343.50
2018-12-29T14:23:01.917Z,100342.62
2018-12-29T14:25:32.639Z,100344.64
2018-12-29T14:28:03.319Z,100341.94
2018-12-29T14:30:33.790Z,100344.12
2018-12-29T14:33:04.373Z,100346.70
2018-12-29T14:35:35.179Z,100354.02
2018-12-29T14:38:06.140Z,100348.80
2018-12-29T14:40:36.795Z,100352.83
2018-12-29T14:43:07.289Z,100345.13
2018-12-29T14:45:37.918Z,100350.27
2018-12-29T14:48:08.970Z,100351.77
2018-12-29T14:50:39.462Z,100348.72
2018-12-29T14:53:10.025Z,100338.18
2018-12-29T14:55:40.595Z,100333.59
2018-12-29T14:58:11.208Z,100340.52
2018-12-29T15:00:41.745Z,100338.18
2018-12-29T15:03:12.238Z,100343.31
2018-12-29T15:05:43.045Z,100342.80
2018-12-29T15:08:13.596Z,100347.52
2018-12-29T15:10:44.052Z,100341.52
2018-12-29T15:13:14.816Z,100343.80
2018-12-29T15:15:45.420Z,100343.02
2018-12-29T15:18:16.385Z,100349.95
2018-12-29T15:20:47.523Z,100345.08
2018-12-29T15:23:18.669Z,100341.61
2018-12-29T15:25:49.305Z,100350.21
2018-12-29T15:28:20.000Z,100344.39
2018-12-29T15:30:50.886Z,100352.09
2018-12-29T15:33:21.630Z,100339.64
2018-12-29T15:35:52.281Z,100349.89
2018-12-29T15:38:22.779Z,100342.98
2018-12-29T15:40:53.859Z,100350.13
2018-12-29T15:43:24.396Z,100351.67
2018-12-29T15:45:54.857Z,100350.13
2018-12-29T15:48:25.751Z,100341.78
2018-12-29T15:50:56.286Z,100339.59
2018-12-29T15:53:26.845Z,100337.56
2018-12-29T15:55:57.675Z,100338.30
2018-12-29T15:58:28.266Z,100332.66
2018-12-29T16:00:58.880Z,100338.16
2018-12-29T16:03:29.435Z,100340.95
2018-12-29T16:06:00.275Z,100339.30
2018-12-29T16:08:31.186Z,100336.73
2018-12-29T16:11:01.765Z,100338.02
2018-12-29T16:13:32.468Z,100332.44
2018-12-29T16:16:03.096Z,100331.92
2018-12-29T16:18:33.967Z,100329.88
2018-12-29T16:21:04.906Z,100329.96
2018-12-29T16:23:35.715Z,100327.66
2018-12-29T16:26:12.675Z,100324.55
2018-12-29T16:28:38.705Z,100318.14
2018-12-29T16:31:09.548Z,100323.50
2018-12-29T16:33:41.769Z,100315.81
2018-12-29T16:36:12.698Z,100320.20
2018-12-29T16:38:43.250Z,100315.81
2018-12-29T16:41:14.039Z,100310.31
2018-12-29T16:43:44.665Z,100314.93
2018-12-29T16:46:15.283Z,100316.30
2018-12-29T16:48:45.915Z,100315.53
2018-12-29T16:51:16.834Z,100309.34
2018-12-29T16:53:47.733Z,100303.34
2018-12-29T16:56:18.284Z,100302.43
2018-12-29T16:58:48.856Z,100291.27
2018-12-29T17:01:19.428Z,100286.00
2018-12-29T17:03:50.274Z,100282.66
2018-12-29T17:06:20.759Z,100274.69
2018-12-29T17:08:51.335Z,100273.18
2018-12-29T17:11:21.965Z,100264.72
2018-12-29T17:13:52.496Z,100248.55
2018-12-29T17:16:23.046Z,100255.09
2018-12-29T17:18:53.735Z,100252.91
2018-12-29T17:21:24.368Z,100262.10
2018-12-29T17:23:55.040Z,100260.82
2018-12-29T17:26:26.089Z,100264.30
2018-12-29T17:28:56.711Z,100268.52
2018-12-29T17:31:27.476Z,100263.93
2018-12-29T17:33:58.135Z,100260.08
2018-12-29T17:36:29.145Z,100261.88
2018-12-29T17:38:59.761Z,100251.85
2018-12-29T17:41:30.399Z,100250.56
2018-12-29T17:44:01.114Z,100242.14
2018-12-29T17:46:31.965Z,100243.42
2018-12-29T17:49:02.615Z,100246.27
2018-12-29T17:51:33.273Z,100237.16
2018-12-29T17:54:03.987Z,100238.07
2018-12-29T17:56:36.235Z,100238.34
2018-12-29T17:59:07.202Z,100233.45
2018-12-29T18:01:37.866Z,100226.27
2018-12-29T18:04:08.436Z,100226.95
2018-12-29T18:06:39.134Z,100219.86
2018-12-29T18:09:09.812Z,100216.70
2018-12-29T18:11:40.401Z,100213.00
2018-12-29T18:14:11.033Z,100207.87
2018-12-29T18:16:41.855Z,100202.23
2018-12-29T18:19:12.931Z,100222.20
2018-12-29T18:21:43.460Z,100216.84
2018-12-29T18:24:14.100Z,100211.20
2018-12-29T18:26:44.830Z,100208.64
2018-12-29T18:29:16.005Z,100207.73
2018-12-29T18:31:46.714Z,100202.38
2018-12-29T18:34:17.417Z,100205.31
2018-12-29T18:36:48.287Z,100196.87
2018-12-29T18:39:19.037Z,100201.59
2018-12-29T18:41:49.696Z,100196.10
2018-12-29T18:44:20.437Z,100198.67
2018-12-29T18:46:51.494Z,100194.45
2018-12-29T18:49:22.167Z,100193.54
2018-12-29T18:51:52.920Z,100195.33
2018-12-29T18:54:23.521Z,100190.20
2018-12-29T18:56:54.188Z,100191.89
2018-12-29T18:59:24.885Z,100190.38
2018-12-29T19:01:57.820Z,100193.58
2018-12-29T19:04:28.133Z,100193.21
2018-12-29T19:06:58.917Z,100182.55
2018-12-29T19:09:30.684Z,100178.98
2018-12-29T19:12:01.501Z,100179.02
2018-12-29T19:14:32.493Z,100178.61
2018-12-29T19:17:03.235Z,100175.68
2018-12-29T19:19:36.598Z,100179.16
2018-12-29T19:22:07.455Z,100171.09
2018-12-29T19:24:38.300Z,100175.21
2018-12-29T19:27:09.405Z,100172.41
2018-12-29T19:29:40.533Z,100178.83
2018-12-29T19:32:11.585Z,100181.39
2018-12-29T19:34:43.089Z,100173.70
2018-12-29T19:37:15.396Z,100179.09
2018-12-29T19:39:51.770Z,100168.98
2018-12-29T19:42:26.484Z,100167.09
2018-12-29T19:44:59.059Z,100163.38
2018-12-29T19:47:29.794Z,100152.21
2018-12-29T19:50:00.808Z,100156.43
2018-12-29T19:52:32.569Z,100160.05
2018-12-29T19:55:04.346Z,100157.88
2018-12-29T19:57:35.479Z,100151.84
2018-12-29T20:00:09.964Z,100152.21
2018-12-29T20:02:41.122Z,100144.28
2018-12-29T20:05:13.440Z,100147.77
2018-12-29T20:07:44.699Z,100155.83
2018-12-29T20:10:15.409Z,100154.30
2018-12-29T20:12:48.902Z,100139.05
2018-12-29T20:15:21.855Z,100138.69
2018-12-29T20:17:55.824Z,100142.67
2018-12-29T20:20:27.009Z,100139.70
2018-12-29T20:22:57.814Z,100127.14
2018-12-29T20:25:29.675Z,100122.89
2018-12-29T20:28:04.253Z,100122.52
2018-12-29T20:30:35.224Z,100117.16
2018-12-29T20:33:07.114Z,100113.67
2018-12-29T20:35:40.090Z,100107.64
2018-12-29T20:38:10.798Z,100100.86
2018-12-29T20:40:41.536Z,100097.38
2018-12-29T20:43:14.070Z,100097.78
2018-12-29T20:45:44.826Z,100096.73
2018-12-29T20:48:20.263Z,100088.24
2018-12-29T20:50:50.983Z,100088.51
2018-12-29T20:53:23.955Z,100080.41
2018-12-29T20:56:00.570Z,100074.27
2018-12-29T20:58:38.551Z,100079.94
2018-12-29T21:01:12.327Z,100069.14
2018-12-29T21:03:43.231Z,100062.47
2018-12-29T21:06:14.985Z,100056.30
2018-12-29T21:08:45.678Z,100054.23
2018-12-29T21:11:16.552Z,100044.97
2018-12-29T21:13:47.330Z,100049.25
2018-12-29T21:16:17.915Z,100045.27
2018-12-29T21:18:56.450Z,100034.89
2018-12-29T21:21:28.214Z,100027.84
2018-12-29T21:23:58.993Z,100017.83
2018-12-29T21:26:30.581Z,100007.81
2018-12-29T21:29:02.795Z,100003.94
2018-12-29T21:31:33.651Z,99995.20
2018-12-29T21:34:07.563Z,99992.24
2018-12-29T21:36:38.342Z,99987.63
2018-12-29T21:39:10.875Z,99989.67
2018-12-29T21:41:46.903Z,99982.86
2018-12-29T21:44:18.789Z,99973.80
2018-12-29T21:46:52.929Z,99971.77
2018-12-29T21:49:23.643Z,99972.41
2018-12-29T21:51:54.343Z,99959.22
2018-12-29T21:54:25.034Z,99956.79
2018-12-29T21:56:55.803Z,99946.53
2018-12-29T21:59:26.323Z,99942.94
2018-12-29T22:01:56.939Z,99929.35
2018-12-29T22:04:27.555Z,99936.00
2018-12-29T22:06:58.143Z,99929.96
2018-12-29T22:09:28.812Z,99912.91
2018-12-29T22:11:59.334Z,99911.33
2018-12-29T22:14:30.194Z,99882.62
2018-12-29T22:17:01.218Z,99870.42
2018-12-29T22:19:32.949Z,99883.74
2018-12-29T22:22:04.834Z,99889.34
2018-12-29T22:24:35.494Z,99888.56
2018-12-29T22:27:06.290Z,99890.12
2018-12-29T22:29:37.035Z,99887.56
2018-12-29T22:32:07.684Z,99882.89
2018-12-29T22:34:38.329Z,99879.92
2018-12-29T22:37:08.957Z,99877.73
2018-12-29T22:39:39.525Z,99870.53
2018-12-29T22:42:10.257Z,99863.22
2018-12-29T22:44:41.010Z,99858.73
2018-12-29T22:47:11.638Z,99857.56
2018-12-29T22:49:42.608Z,99864.47
2018-12-29T22:52:13.337Z,99859.59
2018-12-29T22:54:44.032Z,99859.45
2018-12-29T22:57:14.726Z,99855.61
2018-12-29T22:59:45.381Z,99850.83
2018-12-29T23:02:15.936Z,99851.23
2018-12-29T23:04:46.685Z,99850.19
2018-12-29T23:07:17.603Z,99842.52
2018-12-29T23:09:48.338Z,99847.90
2018-12-29T23:12:19.115Z,99845.11
2018-12-29T23:14:50.548Z,99838.97
2018-12-29T23:17:21.199Z,99834.66
2018-12-29T23:19:51.805Z,99832.73
2018-12-29T23:22:22.470Z,99830.84
2018-12-29T23:24:53.110Z,99826.63
2018-12-29T23:27:23.735Z,99822.38
2018-12-29T23:29:54.266Z,99817.26
2018-12-29T23:32:36.940Z,99813.05
2018-12-29T23:35:07.744Z,99810.98
2018-12-29T23:37:38.498Z,99807.31
2018-12-29T23:40:09.497Z,99809.87
2018-12-29T23:42:40.025Z,99808.19
2018-12-29T23:45:10.551Z,99808.59
2018-12-29T23:47:41.347Z,99801.66
2018-12-29T23:50:12.085Z,99801.77
2018-12-29T23:52:42.954Z,99793.71
2018-12-29T23:55:13.476Z,99793.95
2018-12-29T23:57:44.005Z,99791.12
